createdAt,value
2024-04-22T00:01:20.124Z,82.03
2024-04-22T00:03:47.091Z,82.28
2024-04-22T00:06:14.055Z,82.13
2024-04-22T00:08:44.505Z,81.34
2024-04-22T00:11:17.940Z,81.08
2024-04-22T00:13:54.254Z,80.44
2024-04-22T00:16:21.399Z,79.72
2024-04-22T00:18:48.862Z,79.02
2024-04-22T00:21:20.939Z,79.67
2024-04-22T00:23:58.877Z,80.82
2024-04-22T00:26:37.370Z,80.85
2024-04-22T00:29:06.528Z,81.79
2024-04-22T00:31:47.543Z,81.25
2024-04-22T00:34:14.765Z,81.54
2024-04-22T00:36:44.781Z,82.28
2024-04-22T00:39:18.900Z,82.06
2024-04-22T00:41:45.754Z,83.95
2024-04-22T00:44:13.111Z,83.43
2024-04-22T00:46:41.114Z,82.83
2024-04-22T00:49:08.694Z,81.70
2024-04-22T00:51:36.343Z,83.24
2024-04-22T00:54:03.396Z,82.48
2024-04-22T00:56:30.372Z,82.99
2024-04-22T00:59:00.738Z,83.42
2024-04-22T01:01:36.941Z,83.64
2024-04-22T01:04:06.774Z,83.63
2024-04-22T01:06:37.464Z,83.42
2024-04-22T01:09:09.904Z,82.95
2024-04-22T01:11:38.354Z,83.29
2024-04-22T01:14:05.621Z,83.01
2024-04-22T01:16:34.751Z,83.76
2024-04-22T01:19:01.717Z,84.38
2024-04-22T01:21:31.120Z,84.18
2024-04-22T01:24:01.507Z,84.03
2024-04-22T01:26:28.808Z,84.02
2024-04-22T01:28:58.705Z,83.26
2024-04-22T01:31:49.721Z,83.64
2024-04-22T01:34:20.588Z,83.20
2024-04-22T01:36:55.408Z,83.31
2024-04-22T01:39:44.813Z,83.03
2024-04-22T01:42:49.709Z,82.95
2024-04-22T01:45:19.369Z,84.01
2024-04-22T01:47:49.547Z,84.30
2024-04-22T01:50:27.029Z,83.68
2024-04-22T01:53:01.031Z,84.19
2024-04-22T01:55:30.467Z,84.00
2024-04-22T01:57:57.423Z,84.67
2024-04-22T02:00:24.575Z,84.37
2024-04-22T02:02:55.141Z,84.04
2024-04-22T02:05:23.923Z,83.86
2024-04-22T02:07:54.367Z,84.76
2024-04-22T02:10:25.585Z,83.67
2024-04-22T02:12:52.882Z,83.70
2024-04-22T02:15:19.868Z,82.83
2024-04-22T02:17:49.115Z,83.27
2024-04-22T02:20:16.196Z,82.51
2024-04-22T02:22:46.447Z,83.87
2024-04-22T02:25:13.802Z,83.69
2024-04-22T02:27:46.777Z,83.00
2024-04-22T02:30:19.290Z,83.91
2024-04-22T02:32:46.752Z,83.32
2024-04-22T02:35:16.182Z,83.42
2024-04-22T02:37:43.749Z,83.90
2024-04-22T02:40:11.100Z,84.49
2024-04-22T02:42:43.408Z,83.46
2024-04-22T02:45:18.125Z,83.96
2024-04-22T02:47:50.527Z,83.22
2024-04-22T02:50:19.125Z,83.67
2024-04-22T02:52:47.957Z,82.65
2024-04-22T02:55:17.747Z,81.72
2024-04-22T02:57:44.650Z,83.42
2024-04-22T03:00:12.590Z,83.35
2024-04-22T03:02:39.717Z,83.06
2024-04-22T03:05:22.013Z,82.71
2024-04-22T03:07:53.330Z,82.16
2024-04-22T03:10:20.336Z,81.38
2024-04-22T03:12:47.314Z,82.05
2024-04-22T03:15:14.196Z,82.25
2024-04-22T03:17:43.604Z,81.04
2024-04-22T03:20:13.181Z,82.29
2024-04-22T03:22:41.513Z,81.62
2024-04-22T03:25:10.848Z,82.88
2024-04-22T03:27:42.767Z,82.66
2024-04-22T03:30:12.432Z,81.94
2024-04-22T03:32:56.170Z,81.96
2024-04-22T03:35:33.459Z,83.30
2024-04-22T03:38:00.695Z,82.76
2024-04-22T03:40:36.370Z,81.67
2024-04-22T03:43:09.783Z,81.62
2024-04-22T03:45:36.771Z,81.60
2024-04-22T03:48:42.398Z,81.21
2024-04-22T03:51:12.135Z,81.93
2024-04-22T03:53:41.468Z,81.33
2024-04-22T03:58:38.960Z,81.29
2024-04-22T03:59:02.755Z,81.58
2024-04-22T04:01:31.904Z,81.87
2024-04-22T04:04:00.816Z,81.72
2024-04-22T04:06:35.881Z,82.02
2024-04-22T04:09:08.931Z,82.25
2024-04-22T04:11:40.749Z,81.51
2024-04-22T04:14:12.751Z,81.26
2024-04-22T04:16:45.139Z,81.32
2024-04-22T04:19:33.668Z,81.57
2024-04-22T04:22:08.328Z,81.04
2024-04-22T04:27:40.806Z,81.31
2024-04-22T04:30:15.479Z,80.94
2024-04-22T04:32:44.684Z,80.98
2024-04-22T04:35:21.232Z,80.49
2024-04-22T04:37:51.626Z,80.02
2024-04-22T04:40:33.206Z,81.23
2024-04-22T04:43:05.211Z,81.23
2024-04-22T04:46:09.302Z,80.53
2024-04-22T04:48:36.388Z,79.63
2024-04-22T04:51:15.024Z,80.90
2024-04-22T04:53:51.892Z,79.43
2024-04-22T04:56:21.582Z,79.68
2024-04-22T04:58:49.337Z,80.01
2024-04-22T05:01:21.714Z,80.34
2024-04-22T05:04:06.397Z,80.16
2024-04-22T05:06:38.551Z,79.58
2024-04-22T05:09:08.101Z,79.78
2024-04-22T05:11:37.415Z,79.12
2024-04-22T05:14:05.414Z,80.13
2024-04-22T05:16:32.182Z,79.22
2024-04-22T05:18:58.977Z,79.32
2024-04-22T05:21:25.746Z,78.98
2024-04-22T05:23:52.430Z,78.91
2024-04-22T05:26:19.151Z,79.96
2024-04-22T05:28:47.224Z,79.87
2024-04-22T05:31:14.218Z,79.46
2024-04-22T05:33:59.643Z,79.46
2024-04-22T05:36:26.343Z,78.99
2024-04-22T05:38:59.307Z,79.10
2024-04-22T05:41:26.459Z,78.86
2024-04-22T05:43:53.363Z,79.24
2024-04-22T05:46:21.788Z,78.60
2024-04-22T05:48:51.920Z,78.70
2024-04-22T05:51:18.913Z,79.35
2024-04-22T05:53:50.880Z,79.63
2024-04-22T05:56:17.710Z,79.51
2024-04-22T05:58:44.950Z,79.47
2024-04-22T06:01:15.650Z,79.08
2024-04-22T06:03:42.640Z,78.92
2024-04-22T06:06:09.605Z,79.13
2024-04-22T06:08:41.582Z,79.53
2024-04-22T06:11:13.531Z,79.01
2024-04-22T06:13:40.730Z,79.01
2024-04-22T06:16:07.912Z,78.21
2024-04-22T06:18:35.009Z,77.64
2024-04-22T06:21:02.037Z,78.00
2024-04-22T06:23:29.107Z,77.93
2024-04-22T06:26:06.721Z,77.65
2024-04-22T06:28:34.569Z,78.09
2024-04-22T06:31:01.704Z,77.63
2024-04-22T06:33:29.522Z,77.49
2024-04-22T06:35:57.108Z,77.35
2024-04-22T06:38:24.181Z,77.26
2024-04-22T06:40:51.200Z,77.24
2024-04-22T06:43:18.494Z,77.25
2024-04-22T06:45:45.630Z,76.32
2024-04-22T06:48:12.642Z,76.90
2024-04-22T06:50:40.266Z,76.29
2024-04-22T06:53:07.267Z,76.21
2024-04-22T06:55:35.533Z,75.52
2024-04-22T06:58:02.812Z,75.22
2024-04-22T07:00:30.181Z,75.46
2024-04-22T07:02:57.254Z,75.50
2024-04-22T07:05:24.431Z,75.55
2024-04-22T07:07:51.326Z,74.97
2024-04-22T07:10:18.406Z,73.90
2024-04-22T07:12:45.420Z,73.69
2024-04-22T07:15:14.621Z,73.61
2024-04-22T07:17:43.032Z,73.19
2024-04-22T07:20:10.349Z,72.75
2024-04-22T07:22:43.250Z,73.08
2024-04-22T07:25:10.193Z,71.32
2024-04-22T07:27:40.512Z,71.87
2024-04-22T07:30:11.755Z,72.08
2024-04-22T07:32:39.027Z,71.64
2024-04-22T07:35:06.594Z,71.78
2024-04-22T07:37:45.896Z,71.11
2024-04-22T07:40:20.691Z,71.95
2024-04-22T07:42:50.760Z,71.21
2024-04-22T07:45:19.877Z,70.78
2024-04-22T07:47:53.247Z,71.16
2024-04-22T07:50:21.394Z,70.87
2024-04-22T07:52:48.663Z,70.02
2024-04-22T07:55:15.818Z,69.95
2024-04-22T07:57:43.414Z,69.19
2024-04-22T08:00:12.928Z,68.45
2024-04-22T08:02:40.850Z,68.97
2024-04-22T08:05:08.496Z,68.37
2024-04-22T08:07:35.801Z,68.54
2024-04-22T08:10:03.296Z,68.22
2024-04-22T08:12:32.890Z,67.42
2024-04-22T08:14:59.897Z,67.48
2024-04-22T08:17:27.244Z,67.91
2024-04-22T08:19:58.978Z,67.88
2024-04-22T08:22:26.315Z,67.81
2024-04-22T08:24:58.057Z,68.18
2024-04-22T08:27:27.772Z,67.74
2024-04-22T08:29:55.140Z,66.31
2024-04-22T08:32:30.418Z,64.56
2024-04-22T08:34:57.526Z,64.07
2024-04-22T08:37:24.850Z,64.93
2024-04-22T08:39:53.490Z,63.93
2024-04-22T08:42:24.377Z,63.68
2024-04-22T08:44:55.793Z,63.23
2024-04-22T08:47:27.395Z,63.50
2024-04-22T08:49:54.390Z,62.57
2024-04-22T08:52:23.563Z,60.97
2024-04-22T08:54:50.570Z,61.96
2024-04-22T08:57:19.668Z,62.22
2024-04-22T08:59:49.770Z,61.08
2024-04-22T09:02:17.643Z,60.23
2024-04-22T09:04:47.735Z,60.23
2024-04-22T09:07:21.463Z,59.31
2024-04-22T09:10:10.686Z,58.72
2024-04-22T09:12:38.369Z,59.49
2024-04-22T09:15:08.781Z,58.71
2024-04-22T09:17:37.743Z,59.33
2024-04-22T09:20:07.281Z,58.58
2024-04-22T09:22:34.346Z,57.05
2024-04-22T09:25:01.727Z,56.82
2024-04-22T09:27:29.816Z,56.57
2024-04-22T09:30:04.090Z,56.71
2024-04-22T09:32:36.130Z,55.19
2024-04-22T09:35:17.726Z,54.82
2024-04-22T09:37:51.437Z,55.16
2024-04-22T09:40:20.610Z,55.74
2024-04-22T09:42:48.931Z,53.66
2024-04-22T09:45:16.991Z,53.76
2024-04-22T09:47:49.054Z,53.59
2024-04-22T09:50:18.469Z,53.12
2024-04-22T09:52:48.991Z,53.12
2024-04-22T09:55:17.299Z,53.80
2024-04-22T09:57:48.680Z,54.81
2024-04-22T10:00:17.611Z,55.65
2024-04-22T10:02:45.050Z,54.39
2024-04-22T10:05:13.401Z,54.40
2024-04-22T10:07:41.342Z,54.98
2024-04-22T10:10:13.285Z,54.54
2024-04-22T10:12:40.623Z,54.16
2024-04-22T10:15:17.761Z,54.45
2024-04-22T10:17:46.246Z,55.08
2024-04-22T10:20:13.834Z,55.07
2024-04-22T10:22:41.306Z,54.68
2024-04-22T10:25:09.926Z,55.25
2024-04-22T10:27:37.409Z,56.63
2024-04-22T10:30:08.870Z,56.88
2024-04-22T10:32:40.798Z,56.96
2024-04-22T10:35:07.737Z,57.87
2024-04-22T10:37:34.925Z,58.47
2024-04-22T10:40:02.236Z,58.68
2024-04-22T10:42:29.928Z,58.43
2024-04-22T10:44:59.322Z,61.21
2024-04-22T10:47:38.086Z,58.75
2024-04-22T10:50:18.588Z,59.22
2024-04-22T10:52:46.076Z,58.86
2024-04-22T10:55:15.631Z,59.59
2024-04-22T10:57:46.545Z,59.05
2024-04-22T11:00:15.872Z,58.32
2024-04-22T11:02:45.806Z,58.27
2024-04-22T11:05:40.104Z,59.14
2024-04-22T11:08:09.315Z,59.06
2024-04-22T11:10:43.954Z,59.09
2024-04-22T11:13:11.960Z,59.22
2024-04-22T11:15:39.036Z,59.52
2024-04-22T11:18:11.342Z,58.52
2024-04-22T11:20:42.583Z,59.58
2024-04-22T11:23:09.794Z,59.63
2024-04-22T11:25:37.020Z,59.26
2024-04-22T11:28:04.208Z,59.98
2024-04-22T11:30:31.159Z,59.15
2024-04-22T11:32:58.232Z,59.77
2024-04-22T11:35:25.545Z,59.44
2024-04-22T11:37:55.620Z,58.41
2024-04-22T11:40:22.748Z,59.60
2024-04-22T11:42:52.183Z,59.05
2024-04-22T11:45:19.297Z,59.50
2024-04-22T11:47:46.516Z,59.18
2024-04-22T11:50:13.618Z,59.26
2024-04-22T11:52:40.887Z,59.24
2024-04-22T11:55:08.221Z,60.18
2024-04-22T11:57:35.448Z,60.20
2024-04-22T12:00:02.622Z,59.42
2024-04-22T12:02:35.979Z,58.51
2024-04-22T12:05:10.584Z,58.43
2024-04-22T12:07:43.632Z,59.51
2024-04-22T12:10:13.755Z,59.44
2024-04-22T12:12:40.978Z,59.27
2024-04-22T12:15:09.534Z,59.48
2024-04-22T12:17:39.792Z,58.80
2024-04-22T12:20:09.889Z,58.60
2024-04-22T12:22:40.254Z,57.91
2024-04-22T12:25:07.735Z,57.52
2024-04-22T12:27:34.614Z,57.31
2024-04-22T12:30:01.487Z,57.63
2024-04-22T12:32:33.524Z,58.51
2024-04-22T12:35:04.080Z,58.24
2024-04-22T12:37:34.155Z,58.47
2024-04-22T12:40:01.070Z,58.07
2024-04-22T12:42:28.124Z,57.66
2024-04-22T12:44:55.012Z,58.33
2024-04-22T12:47:40.228Z,57.87
2024-04-22T12:50:26.034Z,57.21
2024-04-22T12:52:52.886Z,57.78
2024-04-22T12:55:19.814Z,57.86
2024-04-22T12:57:46.705Z,58.37
2024-04-22T13:00:16.332Z,58.62
2024-04-22T13:02:43.534Z,58.72
2024-04-22T13:05:10.474Z,58.52
2024-04-22T13:07:37.506Z,58.10
2024-04-22T13:10:04.875Z,57.64
2024-04-22T13:12:31.854Z,57.77
2024-04-22T13:14:58.871Z,57.45
2024-04-22T13:17:25.949Z,57.94
2024-04-22T13:19:52.891Z,58.57
2024-04-22T13:22:19.919Z,57.82
2024-04-22T13:24:47.053Z,58.33
2024-04-22T13:27:16.365Z,57.93
2024-04-22T13:29:43.469Z,56.32
2024-04-22T13:32:11.295Z,55.69
2024-04-22T13:34:38.915Z,56.18
2024-04-22T13:37:05.897Z,55.66
2024-04-22T13:39:33.070Z,55.91
2024-04-22T13:42:01.629Z,55.06
2024-04-22T13:44:28.920Z,54.51
2024-04-22T13:46:58.043Z,54.15
2024-04-22T13:49:25.014Z,54.09
2024-04-22T13:51:51.983Z,53.36
2024-04-22T13:54:18.899Z,53.83
2024-04-22T13:56:45.831Z,52.83
2024-04-22T13:59:12.879Z,52.22
2024-04-22T14:01:41.789Z,53.20
2024-04-22T14:04:11.725Z,54.36
2024-04-22T14:06:40.619Z,54.29
2024-04-22T14:09:09.552Z,54.28
2024-04-22T14:11:37.060Z,54.06
2024-04-22T14:14:03.969Z,54.00
2024-04-22T14:16:30.813Z,52.93
2024-04-22T14:18:58.000Z,52.32
2024-04-22T14:21:25.040Z,51.93
2024-04-22T14:23:52.117Z,52.92
2024-04-22T14:26:22.169Z,51.99
2024-04-22T14:28:50.725Z,52.81
2024-04-22T14:31:17.809Z,52.64
2024-04-22T14:33:44.943Z,52.24
2024-04-22T14:36:14.350Z,51.95
2024-04-22T14:38:41.608Z,51.74
2024-04-22T14:41:08.423Z,52.25
2024-04-22T14:43:35.317Z,52.36
2024-04-22T14:46:05.162Z,51.72
2024-04-22T14:48:32.622Z,52.13
2024-04-22T14:50:59.578Z,51.49
2024-04-22T14:53:27.838Z,52.12
2024-04-22T14:56:05.269Z,51.25
2024-04-22T14:58:32.247Z,52.18
2024-04-22T15:01:05.803Z,52.34
2024-04-22T15:03:38.679Z,51.60
2024-04-22T15:06:08.435Z,51.61
2024-04-22T15:08:35.495Z,50.91
2024-04-22T15:11:06.230Z,50.52
2024-04-22T15:13:36.232Z,50.81
2024-04-22T15:16:04.146Z,50.59
2024-04-22T15:18:31.170Z,49.93
2024-04-22T15:20:58.069Z,50.13
2024-04-22T15:23:25.232Z,50.02
2024-04-22T15:25:54.355Z,49.32
2024-04-22T15:28:21.457Z,49.39
2024-04-22T15:30:50.925Z,49.55
2024-04-22T15:33:19.824Z,50.69
2024-04-22T15:35:48.969Z,49.70
2024-04-22T15:38:18.088Z,48.78
2024-04-22T15:40:44.946Z,49.03
2024-04-22T15:43:12.165Z,48.41
2024-04-22T15:45:41.480Z,49.29
2024-04-22T15:48:08.911Z,49.48
2024-04-22T15:50:38.279Z,50.13
2024-04-22T15:53:05.526Z,51.36
2024-04-22T15:55:32.392Z,52.10
2024-04-22T15:57:59.272Z,51.90
2024-04-22T16:00:30.645Z,51.64
2024-04-22T16:03:05.573Z,51.65
2024-04-22T16:05:41.825Z,52.04
2024-04-22T16:08:11.422Z,52.16
2024-04-22T16:10:44.526Z,51.88
2024-04-22T16:13:15.967Z,52.13
2024-04-22T16:15:57.122Z,51.59
2024-04-22T16:18:26.592Z,51.27
2024-04-22T16:21:07.870Z,51.20
2024-04-22T16:23:38.447Z,50.77
2024-04-22T16:26:06.857Z,50.67
2024-04-22T16:28:33.835Z,50.88
2024-04-22T16:31:00.866Z,50.76
2024-04-22T16:33:30.358Z,50.79
2024-04-22T16:35:57.463Z,51.37
2024-04-22T16:38:26.715Z,52.02
2024-04-22T16:40:57.041Z,52.58
2024-04-22T16:43:24.004Z,52.48
2024-04-22T16:45:50.846Z,54.01
2024-04-22T16:48:20.835Z,52.77
2024-04-22T16:51:12.815Z,52.37
2024-04-22T16:53:37.719Z,52.59
2024-04-22T16:56:11.262Z,52.13
2024-04-22T16:58:45.592Z,52.29
2024-04-22T17:01:17.060Z,52.30
2024-04-22T17:03:44.318Z,52.05
2024-04-22T17:06:11.510Z,51.73
2024-04-22T17:08:53.553Z,52.15
2024-04-22T17:11:28.808Z,52.72
2024-04-22T17:14:05.518Z,52.80
2024-04-22T17:16:36.677Z,52.35
2024-04-22T17:19:05.399Z,52.32
2024-04-22T17:21:42.315Z,52.60
2024-04-22T17:24:22.746Z,52.39
2024-04-22T17:26:51.954Z,52.35
2024-04-22T17:29:31.545Z,52.76
2024-04-22T17:32:08.491Z,52.53
2024-04-22T17:34:40.433Z,52.65
2024-04-22T17:37:23.547Z,52.55
2024-04-22T17:40:06.453Z,52.49
2024-04-22T17:42:56.379Z,53.36
2024-04-22T17:45:23.720Z,53.31
2024-04-22T17:48:32.450Z,53.38
2024-04-22T17:51:27.184Z,53.89
2024-04-22T17:54:09.670Z,54.29
2024-04-22T17:56:44.800Z,54.14
2024-04-22T17:59:27.787Z,54.37
2024-04-22T18:02:03.345Z,54.31
2024-04-22T18:04:35.227Z,54.22
2024-04-22T18:07:07.498Z,54.43
2024-04-22T18:09:38.144Z,56.14
2024-04-22T18:12:25.563Z,57.12
2024-04-22T18:15:03.164Z,56.17
2024-04-22T18:17:42.522Z,55.84
2024-04-22T18:21:08.590Z,56.41
2024-04-22T18:23:37.699Z,56.79
2024-04-22T18:26:40.421Z,56.67
2024-04-22T18:29:19.056Z,56.95
2024-04-22T18:32:02.896Z,56.63
2024-04-22T18:34:35.453Z,57.30
2024-04-22T18:37:10.860Z,57.74
2024-04-22T18:39:53.206Z,57.74
2024-04-22T18:42:32.685Z,57.39
2024-04-22T18:45:25.791Z,58.17
2024-04-22T18:48:26.259Z,57.89
2024-04-22T18:51:12.040Z,57.95
2024-04-22T18:54:00.390Z,58.40
2024-04-22T18:57:06.104Z,57.55
2024-04-22T18:59:41.840Z,57.88
2024-04-22T19:02:21.227Z,58.67
2024-04-22T19:05:08.817Z,57.78
2024-04-22T19:08:04.097Z,57.97
2024-04-22T19:10:37.436Z,57.70
2024-04-22T19:13:10.138Z,57.96
2024-04-22T19:15:48.631Z,59.07
2024-04-22T19:18:30.250Z,59.47
2024-04-22T19:21:15.314Z,58.28
2024-04-22T19:23:55.256Z,58.18
2024-04-22T19:26:25.884Z,58.23
2024-04-22T19:29:06.309Z,58.13
2024-04-22T19:31:47.333Z,58.36
2024-04-22T19:34:38.717Z,58.02
2024-04-22T19:37:15.162Z,57.90
2024-04-22T19:40:20.382Z,58.24
2024-04-22T19:42:52.561Z,58.89
2024-04-22T19:45:19.427Z,59.11
2024-04-22T19:47:46.284Z,59.74
2024-04-22T19:50:13.081Z,58.81
2024-04-22T19:52:48.126Z,58.05
2024-04-22T19:55:32.329Z,57.67
2024-04-22T19:58:31.319Z,58.16
2024-04-22T20:01:27.201Z,58.64
2024-04-22T20:04:02.116Z,57.83
2024-04-22T20:07:06.692Z,56.79
2024-04-22T20:10:00.193Z,57.19
2024-04-22T20:12:40.122Z,56.27
2024-04-22T20:15:51.680Z,56.25
2024-04-22T20:18:59.833Z,55.41
2024-04-22T20:21:44.556Z,54.90
2024-04-22T20:24:18.908Z,55.59
2024-04-22T20:27:20.066Z,55.63
2024-04-22T20:30:01.833Z,56.32
2024-04-22T20:32:31.706Z,55.51
2024-04-22T20:35:31.760Z,55.82
2024-04-22T20:38:49.361Z,55.75
2024-04-22T20:41:26.035Z,55.62
2024-04-22T20:43:56.292Z,56.34
2024-04-22T20:46:39.874Z,56.19
2024-04-22T20:49:16.044Z,56.31
2024-04-22T20:52:15.322Z,56.55
2024-04-22T20:54:48.441Z,57.34
2024-04-22T20:57:36.778Z,57.67
2024-04-22T21:00:20.512Z,57.36
2024-04-22T21:03:07.801Z,57.97
2024-04-22T21:06:04.721Z,58.02
2024-04-22T21:08:53.520Z,57.75
2024-04-22T21:12:35.852Z,57.90
2024-04-22T21:15:09.256Z,58.13
2024-04-22T21:17:36.465Z,57.65
2024-04-22T21:20:16.962Z,58.83
2024-04-22T21:23:01.927Z,59.25
2024-04-22T21:25:52.505Z,60.00
2024-04-22T21:28:28.901Z,61.59
2024-04-22T21:31:11.639Z,62.17
2024-04-22T21:34:06.904Z,62.82
2024-04-22T21:36:49.451Z,63.79
2024-04-22T21:39:52.412Z,63.86
2024-04-22T21:42:16.213Z,64.56
2024-04-22T21:44:43.428Z,64.64
2024-04-22T21:47:14.853Z,65.36
2024-04-22T21:49:42.175Z,64.75
2024-04-22T21:52:48.984Z,65.17
2024-04-22T21:55:51.770Z,65.29
2024-04-22T21:59:06.261Z,65.05
2024-04-22T22:02:11.113Z,64.65
2024-04-22T22:05:16.054Z,65.24
2024-04-22T22:07:42.725Z,65.13
2024-04-22T22:10:10.311Z,65.02
2024-04-22T22:12:42.278Z,65.47
2024-04-22T22:15:13.002Z,64.75
2024-04-22T22:17:56.686Z,63.89
2024-04-22T22:20:30.327Z,64.05
2024-04-22T22:23:00.759Z,63.99
2024-04-22T22:25:41.440Z,63.91
2024-04-22T22:28:16.349Z,63.74
2024-04-22T22:30:53.396Z,63.66
2024-04-22T22:33:32.003Z,63.50
2024-04-22T22:36:01.402Z,64.23
2024-04-22T22:38:44.260Z,63.32
2024-04-22T22:41:35.281Z,63.04
2024-04-22T22:44:02.419Z,63.63
2024-04-22T22:46:32.423Z,64.26
2024-04-22T22:49:01.655Z,64.58
2024-04-22T22:51:31.627Z,64.78
2024-04-22T22:54:05.432Z,65.08
2024-04-22T22:56:44.654Z,65.25
2024-04-22T22:59:14.185Z,65.00
2024-04-22T23:01:44.642Z,65.13
2024-04-22T23:04:12.980Z,65.26
2024-04-22T23:06:44.430Z,66.36
2024-04-22T23:09:32.532Z,66.02
2024-04-22T23:12:18.180Z,65.33
2024-04-22T23:14:57.324Z,66.09
2024-04-22T23:17:29.154Z,66.17
2024-04-22T23:20:00.814Z,66.21
2024-04-22T23:22:32.510Z,66.47
2024-04-22T23:25:03.135Z,65.89
2024-04-22T23:27:41.786Z,65.69
2024-04-22T23:30:16.882Z,65.13
2024-04-22T23:32:45.419Z,65.25
2024-04-22T23:35:19.763Z,65.33
2024-04-22T23:37:46.776Z,65.07
2024-04-22T23:40:14.454Z,65.82
2024-04-22T23:42:41.372Z,66.00
2024-04-22T23:45:15.984Z,66.78
2024-04-22T23:47:46.541Z,67.99
2024-04-22T23:50:31.484Z,69.35
2024-04-22T23:53:04.168Z,70.54
2024-04-22T23:55:38.616Z,74.01
2024-04-22T23:58:08.487Z,74.98
